Time;durP1;ratioP1;P1;durP2;ratioP2;P2;SDS_P1;SDS_P2;PMS_P1;PMS_P2;Temp;Humidity;BMP_temperature;BMP_pressure;BME280_temperature;BME280_humidity;BME280_pressure;Samples;Min_cycle;Max_cycle;Signal;HPM_P1;HPM_P2
2021/07/30 00:00:43;;;;;;;4.57;2.83;;;16.20;99.90;;;;;;5061108;28;20435;-84
2021/07/30 00:03:13;;;;;;;3.83;2.77;;;16.30;99.90;;;;;;5079817;28;21004;-84
2021/07/30 00:05:41;;;;;;;7.90;3.77;;;16.20;99.90;;;;;;5060394;28;20423;-84
2021/07/30 00:08:09;;;;;;;4.47;2.87;;;16.20;99.90;;;;;;5058475;28;20963;-83
2021/07/30 00:10:37;;;;;;;3.90;2.40;;;16.30;99.90;;;;;;5076152;28;20689;-83
2021/07/30 00:13:05;;;;;;;4.67;2.97;;;16.20;99.90;;;;;;5076759;28;20416;-83
2021/07/30 00:15:34;;;;;;;2.77;2.33;;;16.40;99.90;;;;;;5057709;28;20413;-83
2021/07/30 00:18:02;;;;;;;5.37;2.37;;;16.40;99.90;;;;;;5075735;28;20427;-84
2021/07/30 00:20:31;;;;;;;4.37;2.50;;;16.50;99.90;;;;;;5076883;28;20406;-83
2021/07/30 00:23:00;;;;;;;2.97;2.70;;;16.40;99.90;;;;;;5077607;28;20442;-83
2021/07/30 00:25:28;;;;;;;7.90;2.90;;;16.50;99.90;;;;;;5076880;28;20394;-83
2021/07/30 00:27:56;;;;;;;4.43;2.30;;;16.40;99.90;;;;;;5078164;28;20429;-83
2021/07/30 00:30:24;;;;;;;5.23;2.20;;;16.50;99.90;;;;;;5068842;28;20466;-82
2021/07/30 00:32:52;;;;;;;3.87;2.50;;;16.70;99.90;;;;;;5079198;28;20441;-82
2021/07/30 00:35:21;;;;;;;2.93;2.63;;;16.90;99.90;;;;;;5096720;28;20438;-83
2021/07/30 00:37:50;;;;;;;2.57;2.17;;;16.90;99.90;;;;;;5098002;28;20387;-83
2021/07/30 00:40:18;;;;;;;2.67;2.43;;;17.10;99.90;;;;;;5082684;28;20466;-83
2021/07/30 00:42:51;;;;;;;2.80;2.27;;;17.20;99.90;;;;;;5100257;28;20496;-83
2021/07/30 00:45:20;;;;;;;3.80;2.60;;;17.20;99.90;;;;;;5100042;28;20365;-82
2021/07/30 00:47:50;;;;;;;2.40;2.20;;;17.20;99.90;;;;;;5082763;28;20441;-82
2021/07/30 00:50:18;;;;;;;5.30;2.23;;;17.20;99.90;;;;;;5100159;28;20525;-83
2021/07/30 00:52:46;;;;;;;2.40;2.20;;;17.20;99.90;;;;;;5100137;28;20445;-83
2021/07/30 00:55:16;;;;;;;8.03;2.50;;;17.20;99.90;;;;;;5082677;28;20433;-83
2021/07/30 00:57:44;;;;;;;4.43;2.20;;;16.90;99.90;;;;;;5091278;28;20400;-83
2021/07/30 01:00:13;;;;;;;2.77;2.30;;;17.00;99.90;;;;;;5061226;28;20413;-83
2021/07/30 01:02:41;;;;;;;6.63;2.30;;;16.90;99.90;;;;;;5080206;28;20912;-83
2021/07/30 01:05:11;;;;;;;4.30;2.87;;;16.90;99.90;;;;;;5061375;28;20451;-83
2021/07/30 01:07:39;;;;;;;2.80;2.60;;;17.00;99.90;;;;;;5078607;28;20437;-83
2021/07/30 01:10:08;;;;;;;2.67;2.40;;;16.90;99.90;;;;;;5078276;28;20995;-82
2021/07/30 01:12:38;;;;;;;2.10;1.83;;;16.70;99.90;;;;;;5061899;28;20464;-83
2021/07/30 01:15:07;;;;;;;5.30;2.03;;;16.80;99.90;;;;;;5062246;28;20477;-82
2021/07/30 01:17:35;;;;;;;5.00;2.40;;;16.90;99.90;;;;;;5076980;28;20430;-83
2021/07/30 01:20:05;;;;;;;6.00;2.73;;;16.70;99.90;;;;;;5077405;28;20401;-83
2021/07/30 01:22:38;;;;;;;4.00;2.60;;;16.60;99.90;;;;;;5075875;28;20441;-83
2021/07/30 01:25:08;;;;;;;3.67;2.70;;;16.60;99.90;;;;;;5058904;28;20786;-82
2021/07/30 01:27:36;;;;;;;2.37;2.03;;;16.60;99.90;;;;;;5077034;28;20408;-82
2021/07/30 01:30:05;;;;;;;3.50;2.30;;;16.50;99.90;;;;;;5059868;28;20923;-83
2021/07/30 01:32:36;;;;;;;2.30;1.90;;;16.60;99.90;;;;;;5099332;28;20423;-82
2021/07/30 01:35:04;;;;;;;3.73;2.40;;;16.40;99.90;;;;;;5097804;28;20434;-82
2021/07/30 01:37:33;;;;;;;2.80;2.03;;;16.60;99.90;;;;;;5081517;28;20413;-82
2021/07/30 01:40:01;;;;;;;2.10;1.90;;;16.50;99.90;;;;;;5081686;28;20426;-83
2021/07/30 01:42:31;;;;;;;1.90;1.80;;;16.60;99.90;;;;;;5089632;28;20428;-83
2021/07/30 01:45:00;;;;;;;4.87;2.50;;;16.70;99.90;;;;;;5082232;28;20458;-83
2021/07/30 01:47:28;;;;;;;2.47;2.20;;;16.70;99.90;;;;;;5063846;28;20432;-83
2021/07/30 01:49:56;;;;;;;5.47;2.50;;;16.80;99.90;;;;;;5063212;28;20466;-83
2021/07/30 01:52:24;;;;;;;2.90;2.60;;;16.70;99.90;;;;;;5071703;28;20532;-82
2021/07/30 01:54:52;;;;;;;3.00;2.70;;;16.50;99.90;;;;;;5096086;28;20426;-83
2021/07/30 01:57:21;;;;;;;2.73;2.30;;;16.40;99.90;;;;;;5078853;28;20423;-83
2021/07/30 01:59:50;;;;;;;2.73;2.30;;;16.20;99.90;;;;;;5077751;28;20409;-83
2021/07/30 02:02:18;;;;;;;4.90;2.80;;;16.10;99.90;;;;;;5062924;28;20486;-82
2021/07/30 02:04:46;;;;;;;2.60;2.03;;;16.20;99.90;;;;;;5081772;28;20397;-83
2021/07/30 02:07:18;;;;;;;2.53;2.33;;;16.20;99.90;;;;;;5063580;28;20446;-83
2021/07/30 02:09:47;;;;;;;2.77;2.47;;;16.20;99.90;;;;;;5063422;28;20515;-83
2021/07/30 02:12:15;;;;;;;2.60;2.40;;;16.10;99.90;;;;;;5080295;28;20514;-84
2021/07/30 02:14:43;;;;;;;3.33;2.47;;;15.90;99.90;;;;;;5064482;28;20423;-83
2021/07/30 02:17:12;;;;;;;2.60;2.40;;;15.90;99.90;;;;;;5081270;28;20439;-83
2021/07/30 02:19:40;;;;;;;6.33;2.40;;;15.80;99.90;;;;;;5081453;28;20385;-84
2021/07/30 02:22:09;;;;;;;3.87;2.80;;;15.90;99.90;;;;;;5079947;28;20437;-84
2021/07/30 02:24:37;;;;;;;5.33;2.47;;;15.90;99.90;;;;;;5066683;28;20513;-84
2021/07/30 02:27:05;;;;;;;3.20;2.20;;;16.00;99.90;;;;;;5072169;28;20430;-83
2021/07/30 02:29:34;;;;;;;3.60;2.50;;;16.00;99.90;;;;;;5067461;28;20854;-83
2021/07/30 02:32:02;;;;;;;2.60;1.87;;;16.00;99.90;;;;;;5064041;28;20490;-83
2021/07/30 02:34:31;;;;;;;4.17;2.20;;;15.90;99.90;;;;;;5062695;28;20401;-83
2021/07/30 02:36:59;;;;;;;2.37;2.17;;;15.90;99.90;;;;;;5062624;28;20458;-83
2021/07/30 02:39:27;;;;;;;6.73;3.10;;;16.00;99.90;;;;;;5079997;28;20438;-83
2021/07/30 02:41:56;;;;;;;4.10;2.80;;;16.00;99.90;;;;;;5080333;28;20449;-84
2021/07/30 02:44:24;;;;;;;5.07;3.80;;;16.00;99.90;;;;;;5060627;28;20421;-83
2021/07/30 02:46:52;;;;;;;4.10;2.93;;;16.00;99.90;;;;;;5079905;28;20409;-82
2021/07/30 02:49:20;;;;;;;2.60;2.40;;;15.90;99.90;;;;;;5079377;28;20401;-83
2021/07/30 02:51:50;;;;;;;2.60;2.40;;;15.80;99.90;;;;;;5059940;28;20461;-83
2021/07/30 02:54:18;;;;;;;3.20;2.80;;;15.90;99.90;;;;;;5078474;28;20755;-83
2021/07/30 02:56:46;;;;;;;2.40;2.20;;;15.80;99.90;;;;;;5078492;28;20412;-83
2021/07/30 02:59:14;;;;;;;4.00;3.10;;;15.80;99.90;;;;;;5080135;28;20426;-83
2021/07/30 03:01:42;;;;;;;4.83;3.10;;;15.90;99.90;;;;;;5079112;28;20741;-83
2021/07/30 03:04:10;;;;;;;3.60;2.97;;;16.00;99.90;;;;;;5079737;28;20416;-84
2021/07/30 03:06:39;;;;;;;3.47;3.17;;;16.00;99.90;;;;;;5061853;28;20424;-83
2021/07/30 03:09:08;;;;;;;4.00;2.70;;;16.20;99.90;;;;;;5079416;28;20779;-83
2021/07/30 03:11:37;;;;;;;6.00;2.57;;;16.30;99.90;;;;;;5079274;28;20462;-83
2021/07/30 03:14:05;;;;;;;2.60;2.40;;;16.30;99.90;;;;;;5080759;28;20404;-84
2021/07/30 03:16:33;;;;;;;5.17;3.30;;;16.10;99.90;;;;;;5078185;28;20490;-83
2021/07/30 03:19:01;;;;;;;4.13;2.93;;;16.00;99.90;;;;;;5064432;28;20405;-83
2021/07/30 03:21:29;;;;;;;5.47;3.10;;;16.10;99.90;;;;;;5081522;28;20381;-83
2021/07/30 03:23:57;;;;;;;3.50;3.03;;;16.10;99.90;;;;;;5083823;28;20932;-83
2021/07/30 03:26:27;;;;;;;3.20;2.50;;;16.10;99.90;;;;;;5087252;28;20397;-83
2021/07/30 03:28:55;;;;;;;3.00;2.70;;;16.00;99.90;;;;;;5079342;28;20468;-83
2021/07/30 03:31:23;;;;;;;4.30;3.10;;;15.90;99.90;;;;;;5077261;28;21004;-83
2021/07/30 03:33:52;;;;;;;3.43;2.80;;;16.00;99.90;;;;;;5074999;28;20456;-84
2021/07/30 03:36:21;;;;;;;6.70;3.27;;;16.00;99.90;;;;;;5074446;28;20871;-83
2021/07/30 03:38:49;;;;;;;3.50;3.20;;;16.20;99.90;;;;;;5073212;28;20393;-83
2021/07/30 03:41:17;;;;;;;5.27;2.90;;;16.20;99.90;;;;;;5077235;28;20389;-84
2021/07/30 03:43:47;;;;;;;4.87;2.80;;;16.30;99.90;;;;;;5061357;28;20433;-84
2021/07/30 03:46:15;;;;;;;3.83;3.10;;;16.50;99.90;;;;;;5061740;28;20420;-83
2021/07/30 03:48:43;;;;;;;3.17;2.30;;;16.60;99.90;;;;;;5082548;28;20786;-83
2021/07/30 03:51:11;;;;;;;3.30;2.40;;;16.90;99.90;;;;;;5078713;28;20408;-84
2021/07/30 03:53:39;;;;;;;3.43;2.20;;;17.00;99.90;;;;;;5080218;28;20808;-84
2021/07/30 03:56:13;;;;;;;9.40;3.47;;;17.20;99.90;;;;;;5061062;28;20459;-83
2021/07/30 03:58:42;;;;;;;5.83;5.33;;;17.50;99.90;;;;;;5061394;28;20786;-84
2021/07/30 04:01:12;;;;;;;4.60;3.43;;;17.80;99.90;;;;;;5068675;28;20440;-83
2021/07/30 04:03:42;;;;;;;5.20;3.00;;;18.00;99.90;;;;;;5073854;28;20515;-82
2021/07/30 04:06:10;;;;;;;3.10;2.40;;;17.90;99.90;;;;;;5080194;28;20453;-83
2021/07/30 04:08:39;;;;;;;4.93;3.40;;;17.60;99.90;;;;;;5098964;28;20399;-83
2021/07/30 04:11:07;;;;;;;3.43;3.00;;;17.40;99.90;;;;;;5077594;28;20389;-83
2021/07/30 04:13:35;;;;;;;3.83;2.43;;;17.40;99.90;;;;;;5065010;28;20852;-83
2021/07/30 04:16:04;;;;;;;4.53;2.63;;;17.40;99.90;;;;;;5083987;28;20490;-83
2021/07/30 04:18:33;;;;;;;5.10;2.63;;;17.50;99.90;;;;;;5090412;28;20426;-82
2021/07/30 04:21:04;;;;;;;2.77;2.57;;;17.80;99.90;;;;;;5082390;28;20426;-82
2021/07/30 04:23:33;;;;;;;2.90;2.13;;;18.10;99.90;;;;;;5081276;28;20470;-82
2021/07/30 04:26:01;;;;;;;4.30;2.57;;;18.00;99.90;;;;;;5100434;28;20385;-82
2021/07/30 04:28:29;;;;;;;3.53;2.47;;;17.90;99.90;;;;;;5100782;28;20441;-83
2021/07/30 04:30:57;;;;;;;2.53;2.33;;;18.30;99.90;;;;;;5100576;28;20440;-83
2021/07/30 04:33:26;;;;;;;2.50;2.30;;;19.10;99.90;;;;;;5083050;28;20472;-82
2021/07/30 04:35:55;;;;;;;2.90;2.57;;;19.80;99.90;;;;;;5073438;28;20836;-83
2021/07/30 04:38:23;;;;;;;2.93;2.63;;;20.80;99.90;;;;;;5083120;28;20429;-84
2021/07/30 04:40:51;;;;;;;5.33;2.40;;;20.60;99.90;;;;;;5083244;28;20393;-84
2021/07/30 04:43:20;;;;;;;4.17;2.67;;;20.30;99.90;;;;;;5083054;28;20449;-84
2021/07/30 04:45:48;;;;;;;5.33;3.00;;;20.70;99.90;;;;;;5081274;28;20425;-84
2021/07/30 04:48:16;;;;;;;3.47;2.67;;;21.00;99.90;;;;;;5082897;28;20446;-84
2021/07/30 04:50:44;;;;;;;2.33;2.13;;;21.90;99.90;;;;;;5065121;28;20426;-84
2021/07/30 04:53:13;;;;;;;3.00;2.70;;;22.40;99.90;;;;;;5082188;28;20468;-83
2021/07/30 04:55:42;;;;;;;4.57;3.00;;;23.40;99.90;;;;;;5065501;28;20733;-84
2021/07/30 04:58:10;;;;;;;2.83;2.63;;;23.60;99.90;;;;;;5083191;28;20415;-84
2021/07/30 05:00:38;;;;;;;5.73;2.77;;;24.00;99.90;;;;;;5083862;28;20437;-83
2021/07/30 05:03:06;;;;;;;4.60;2.43;;;24.50;99.90;;;;;;5066077;28;20877;-84
2021/07/30 05:05:34;;;;;;;3.73;3.43;;;24.90;99.90;;;;;;5064266;28;20434;-84
2021/07/30 05:08:03;;;;;;;5.70;2.80;;;25.00;99.90;;;;;;5064116;28;20525;-84
2021/07/30 05:10:32;;;;;;;4.63;3.57;;;25.40;99.90;;;;;;5064444;28;20422;-84
2021/07/30 05:13:01;;;;;;;4.50;2.80;;;25.90;99.90;;;;;;5081423;28;20522;-84
2021/07/30 05:15:30;;;;;;;9.53;4.17;;;26.20;99.90;;;;;;5063352;28;20442;-84
2021/07/30 05:17:58;;;;;;;3.90;3.03;;;26.40;99.90;;;;;;5062914;28;20453;-84
2021/07/30 05:20:26;;;;;;;3.07;2.77;;;25.70;99.90;;;;;;5063562;28;20431;-83
2021/07/30 05:22:54;;;;;;;5.50;3.53;;;26.10;99.90;;;;;;5085553;22;20513;-84
2021/07/30 05:25:22;;;;;;;5.60;3.67;;;26.60;99.90;;;;;;5091034;28;20481;-82
2021/07/30 05:27:52;;;;;;;5.43;3.13;;;26.50;99.90;;;;;;5086473;28;20464;-83
2021/07/30 05:30:20;;;;;;;5.40;2.57;;;26.80;99.90;;;;;;5087209;28;20434;-84
2021/07/30 05:32:48;;;;;;;12.73;3.10;;;27.40;99.90;;;;;;5067043;28;20535;-83
2021/07/30 05:35:17;;;;;;;8.50;2.83;;;26.30;99.90;;;;;;5085573;28;20453;-79
2021/07/30 05:37:45;;;;;;;3.43;2.63;;;24.80;99.90;;;;;;5099503;28;20406;-81
2021/07/30 05:40:14;;;;;;;3.03;2.77;;;23.00;99.90;;;;;;5082186;28;20419;-79
2021/07/30 05:42:42;;;;;;;3.90;2.60;;;21.90;99.90;;;;;;5099347;28;20495;-81
2021/07/30 05:45:11;;;;;;;3.00;2.47;;;20.80;99.90;;;;;;5098023;28;20423;-79
2021/07/30 05:47:39;;;;;;;2.77;2.43;;;20.20;99.90;;;;;;5095682;28;20393;-84
2021/07/30 05:50:09;;;;;;;4.70;2.90;;;19.70;99.90;;;;;;5093880;28;20418;-81
2021/07/30 05:52:37;;;;;;;3.87;2.43;;;19.60;99.90;;;;;;5081935;28;20490;-79
2021/07/30 05:55:06;;;;;;;2.60;2.27;;;19.30;99.90;;;;;;5078786;28;20732;-79
2021/07/30 05:57:34;;;;;;;4.60;2.73;;;19.30;99.90;;;;;;5085659;28;20428;-84
2021/07/30 06:00:04;;;;;;;3.40;2.50;;;19.20;99.90;;;;;;5082545;28;20431;-83
2021/07/30 06:02:38;;;;;;;6.20;2.23;;;19.20;99.90;;;;;;5086430;28;20430;-83
2021/07/30 06:05:08;;;;;;;2.97;2.07;;;19.40;99.90;;;;;;5088562;28;20501;-81
2021/07/30 06:07:37;;;;;;;5.10;2.50;;;19.50;99.90;;;;;;5065033;28;20850;-83
2021/07/30 06:10:06;;;;;;;7.30;2.67;;;19.60;99.90;;;;;;5084733;28;20431;-83
2021/07/30 06:12:35;;;;;;;2.97;2.50;;;19.40;99.90;;;;;;5087017;28;20432;-84
2021/07/30 06:15:04;;;;;;;4.30;3.90;;;19.40;99.90;;;;;;5085803;28;20398;-84
2021/07/30 06:17:36;;;;;;;4.67;3.57;;;19.50;99.90;;;;;;5093885;28;20488;-83
2021/07/30 06:20:08;;;;;;;4.63;3.10;;;19.40;99.90;;;;;;5070996;28;20843;-85
2021/07/30 06:22:37;;;;;;;3.03;2.73;;;19.50;99.90;;;;;;5095072;28;20454;-83
2021/07/30 06:25:07;;;;;;;8.43;3.13;;;19.60;99.90;;;;;;5090704;28;20389;-81
2021/07/30 06:27:35;;;;;;;6.43;2.63;;;19.70;99.90;;;;;;5094918;28;20490;-85
2021/07/30 06:30:04;;;;;;;6.50;2.90;;;19.60;99.90;;;;;;5088882;28;20403;-82
2021/07/30 06:32:32;;;;;;;5.03;3.07;;;19.70;99.90;;;;;;5090561;28;20478;-82
2021/07/30 06:35:01;;;;;;;5.23;3.00;;;19.70;99.90;;;;;;5089927;28;20433;-82
2021/07/30 06:37:34;;;;;;;5.87;2.87;;;19.70;99.90;;;;;;5088617;28;20382;-84
2021/07/30 06:40:04;;;;;;;3.43;2.60;;;19.70;99.90;;;;;;5091744;28;20411;-82
2021/07/30 06:42:33;;;;;;;3.83;2.40;;;19.60;99.90;;;;;;5068041;28;20462;-83
2021/07/30 06:45:03;;;;;;;6.53;3.50;;;19.70;99.90;;;;;;5084178;28;20409;-82
2021/07/30 06:47:33;;;;;;;8.50;2.40;;;19.70;99.90;;;;;;5067108;28;20409;-83
2021/07/30 06:50:01;;;;;;;4.80;2.73;;;19.70;99.90;;;;;;5084181;28;20875;-84
2021/07/30 06:52:30;;;;;;;4.30;2.80;;;19.90;99.90;;;;;;5084179;28;20491;-84
2021/07/30 06:55:01;;;;;;;4.27;3.03;;;19.90;99.90;;;;;;5075043;28;20456;-82
2021/07/30 06:57:29;;;;;;;4.90;2.80;;;20.00;99.90;;;;;;5073894;28;20435;-82
2021/07/30 06:59:57;;;;;;;5.73;2.77;;;20.00;99.90;;;;;;5069130;28;20433;-83
2021/07/30 07:02:26;;;;;;;4.23;3.83;;;20.00;99.90;;;;;;5090217;28;20477;-82
2021/07/30 07:04:54;;;;;;;3.40;2.53;;;19.90;99.90;;;;;;5092255;28;20401;-82
2021/07/30 07:07:24;;;;;;;4.60;2.87;;;20.00;99.90;;;;;;5077252;28;20427;-82
2021/07/30 07:09:52;;;;;;;2.80;2.17;;;20.30;99.90;;;;;;5076220;28;20437;-84
2021/07/30 07:12:22;;;;;;;5.43;3.00;;;20.50;99.90;;;;;;5093101;28;20501;-83
2021/07/30 07:14:50;;;;;;;4.53;3.37;;;20.50;99.90;;;;;;5075240;28;20455;-83
2021/07/30 07:17:18;;;;;;;5.40;2.80;;;20.60;99.90;;;;;;5086731;28;20401;-83
2021/07/30 07:19:47;;;;;;;6.50;3.23;;;20.60;99.90;;;;;;5090265;28;20410;-80
2021/07/30 07:22:15;;;;;;;3.17;2.63;;;20.50;99.90;;;;;;5097555;28;20479;-78
2021/07/30 07:24:43;;;;;;;4.53;3.13;;;20.50;99.90;;;;;;5096975;28;20386;-79
2021/07/30 07:27:11;;;;;;;5.20;3.20;;;20.40;99.90;;;;;;5085881;28;20423;-82
2021/07/30 07:29:41;;;;;;;4.07;2.93;;;20.50;99.90;;;;;;5087215;28;20434;-83
2021/07/30 07:32:09;;;;;;;7.00;3.80;;;20.70;99.90;;;;;;5092825;28;20400;-81
2021/07/30 07:34:37;;;;;;;6.03;3.57;;;20.80;99.90;;;;;;5096366;28;20451;-80
2021/07/30 07:37:09;;;;;;;3.73;3.17;;;21.00;99.90;;;;;;5086802;28;20421;-82
2021/07/30 07:39:37;;;;;;;4.20;3.00;;;21.10;99.90;;;;;;5065065;28;20444;-84
2021/07/30 07:42:05;;;;;;;5.10;3.70;;;21.20;99.90;;;;;;5063980;28;20450;-83
2021/07/30 07:44:34;;;;;;;4.90;2.90;;;21.30;99.90;;;;;;5063876;28;20423;-83
2021/07/30 07:47:04;;;;;;;5.50;3.53;;;21.30;99.90;;;;;;5080817;28;20418;-84
2021/07/30 07:49:32;;;;;;;4.73;3.67;;;21.30;99.90;;;;;;5082658;28;20411;-83
2021/07/30 07:52:00;;;;;;;4.40;2.30;;;21.40;99.90;;;;;;5065543;28;20434;-83
2021/07/30 07:54:48;;;;;;;5.10;3.53;;;21.50;99.90;;;;;;5087613;28;20450;-80
2021/07/30 07:57:16;;;;;;;5.87;3.90;;;21.50;99.90;;;;;;5097233;28;20438;-80
2021/07/30 07:59:44;;;;;;;6.03;3.10;;;21.50;99.90;;;;;;5096939;28;20736;-80
2021/07/30 08:02:14;;;;;;;3.73;3.40;;;21.60;99.90;;;;;;5097294;28;20423;-78
2021/07/30 08:04:42;;;;;;;4.00;2.53;;;21.60;99.90;;;;;;5091960;28;20434;-83
2021/07/30 08:07:12;;;;;;;5.00;3.43;;;21.60;99.90;;;;;;5080968;28;20427;-84
2021/07/30 08:09:40;;;;;;;5.67;3.00;;;21.70;99.90;;;;;;5077047;28;20425;-84
2021/07/30 08:12:08;;;;;;;6.93;2.80;;;21.90;99.90;;;;;;5040995;28;20444;-83
2021/07/30 08:14:37;;;;;;;5.87;3.30;;;21.90;99.90;;;;;;5040860;28;20482;-82
2021/07/30 08:17:06;;;;;;;8.40;3.77;;;21.80;99.90;;;;;;5041688;28;20504;-84
2021/07/30 08:19:37;;;;;;;3.87;3.43;;;21.90;99.90;;;;;;5056586;28;20450;-84
2021/07/30 08:22:06;;;;;;;3.60;3.20;;;22.10;99.90;;;;;;5060193;28;20414;-84
2021/07/30 08:24:34;;;;;;;10.10;4.20;;;22.10;99.90;;;;;;5060006;28;20424;-84
2021/07/30 08:27:06;;;;;;;6.93;3.70;;;22.20;99.90;;;;;;5056953;28;20432;-83
2021/07/30 08:29:34;;;;;;;5.30;3.43;;;22.30;99.90;;;;;;5039891;28;20772;-84
2021/07/30 08:32:02;;;;;;;3.63;3.30;;;22.40;99.90;;;;;;5040324;28;20527;-84
2021/07/30 08:34:30;;;;;;;4.60;3.00;;;22.60;99.90;;;;;;5040366;28;21005;-83
2021/07/30 08:37:00;;;;;;;6.93;3.87;;;22.90;99.90;;;;;;5042051;28;20424;-83
2021/07/30 08:39:28;;;;;;;6.63;4.10;;;22.90;99.90;;;;;;5043025;28;20428;-83
2021/07/30 08:41:59;;;;;;;5.77;3.77;;;23.00;99.90;;;;;;5051120;28;20394;-81
2021/07/30 08:44:28;;;;;;;4.63;3.17;;;23.00;99.90;;;;;;5049551;28;20420;-81
2021/07/30 08:46:56;;;;;;;10.20;4.43;;;22.90;99.90;;;;;;5031961;28;20436;-81
2021/07/30 08:49:24;;;;;;;6.00;3.20;;;23.10;99.90;;;;;;5049966;28;20433;-84
2021/07/30 08:52:06;;;;;;;3.63;3.33;;;23.20;99.90;;;;;;5049855;28;20406;-80
2021/07/30 08:54:34;;;;;;;4.50;3.40;;;23.20;99.90;;;;;;5054165;28;20468;-82
2021/07/30 08:57:07;;;;;;;7.33;3.50;;;23.30;99.90;;;;;;5052446;28;20434;-82
2021/07/30 08:59:38;;;;;;;7.93;3.83;;;23.30;99.90;;;;;;5047710;28;20430;-81
2021/07/30 09:02:07;;;;;;;3.00;2.57;;;22.90;99.90;;;;;;5047847;28;20487;-84
2021/07/30 09:04:36;;;;;;;4.57;3.17;;;23.00;99.90;;;;;;5043813;28;20485;-84
2021/07/30 09:07:06;;;;;;;4.23;2.63;;;23.30;99.90;;;;;;5043172;28;20383;-84
2021/07/30 09:09:34;;;;;;;3.60;2.97;;;23.00;99.90;;;;;;5044829;28;20417;-83
2021/07/30 09:12:04;;;;;;;4.57;3.37;;;22.90;99.90;;;;;;5044924;28;20562;-83
2021/07/30 09:14:34;;;;;;;4.23;3.33;;;23.30;99.90;;;;;;5044709;28;20535;-84
2021/07/30 09:17:04;;;;;;;5.00;2.83;;;23.70;99.90;;;;;;5044815;28;20459;-83
2021/07/30 09:19:33;;;;;;;3.63;2.53;;;23.90;99.90;;;;;;5045790;28;20758;-82
2021/07/30 09:22:07;;;;;;;6.77;3.37;;;23.90;99.90;;;;;;5044468;28;20432;-83
2021/07/30 09:24:38;;;;;;;4.70;3.43;;;23.50;99.90;;;;;;5044404;28;20420;-81
2021/07/30 09:27:08;;;;;;;3.57;2.80;;;23.10;99.90;;;;;;5043410;28;20448;-82
2021/07/30 09:29:37;;;;;;;6.73;3.20;;;23.10;99.90;;;;;;5044984;28;20419;-83
2021/07/30 09:32:09;;;;;;;4.23;3.00;;;23.10;99.90;;;;;;5045071;28;20488;-83
2021/07/30 09:34:39;;;;;;;4.10;3.27;;;23.00;99.90;;;;;;5043157;28;20475;-84
2021/07/30 09:37:10;;;;;;;5.40;3.43;;;22.90;99.90;;;;;;5044044;28;20432;-83
2021/07/30 09:39:41;;;;;;;4.63;2.73;;;22.90;99.90;;;;;;5043637;28;20488;-81
2021/07/30 09:42:17;;;;;;;4.10;3.10;;;22.60;99.90;;;;;;5042626;28;20531;-82
2021/07/30 09:44:51;;;;;;;4.03;3.03;;;22.30;99.90;;;;;;5043388;28;20493;-83
2021/07/30 09:47:24;;;;;;;3.50;3.07;;;22.30;99.90;;;;;;5040465;28;20428;-83
2021/07/30 09:49:54;;;;;;;3.60;3.17;;;22.50;99.90;;;;;;5041429;28;20428;-83
2021/07/30 09:52:26;;;;;;;5.83;3.30;;;22.50;99.90;;;;;;5040634;28;20474;-81
2021/07/30 09:54:56;;;;;;;3.53;3.23;;;22.70;99.90;;;;;;5038834;28;20856;-82
2021/07/30 09:57:26;;;;;;;5.27;3.07;;;22.90;99.90;;;;;;5037480;28;20672;-83
2021/07/30 09:59:57;;;;;;;3.83;3.43;;;23.00;99.90;;;;;;5041215;28;20418;-82
2021/07/30 10:02:28;;;;;;;4.37;3.00;;;23.30;99.90;;;;;;5043589;28;20567;-83
2021/07/30 10:04:57;;;;;;;3.33;2.70;;;23.10;99.90;;;;;;5045130;28;20428;-84
2021/07/30 10:07:28;;;;;;;5.43;3.70;;;23.20;99.90;;;;;;5045667;28;20428;-82
2021/07/30 10:10:04;;;;;;;3.83;3.43;;;23.30;99.90;;;;;;5045089;28;20865;-82
2021/07/30 10:12:34;;;;;;;4.10;3.60;;;23.40;99.90;;;;;;5042289;28;20456;-79
2021/07/30 10:15:05;;;;;;;9.10;2.73;;;23.30;99.90;;;;;;5043821;28;20452;-79
2021/07/30 10:17:34;;;;;;;7.30;3.60;;;23.50;99.90;;;;;;5046012;28;20403;-81
2021/07/30 10:20:05;;;;;;;3.33;2.60;;;24.10;99.90;;;;;;5046795;28;20432;-83
2021/07/30 10:22:38;;;;;;;6.20;3.10;;;24.40;99.90;;;;;;5046940;28;20455;-82
2021/07/30 10:25:09;;;;;;;5.67;3.43;;;24.50;99.90;;;;;;5045223;28;20434;-82
2021/07/30 10:27:42;;;;;;;3.30;2.33;;;24.10;99.90;;;;;;5045995;28;20430;-83
2021/07/30 10:30:12;;;;;;;3.77;2.67;;;24.10;99.90;;;;;;5044725;28;20420;-82
2021/07/30 10:32:46;;;;;;;3.50;2.60;;;24.50;99.90;;;;;;5044621;28;20503;-80
2021/07/30 10:35:15;;;;;;;4.87;2.80;;;24.70;99.90;;;;;;5042322;28;20442;-81
2021/07/30 10:37:45;;;;;;;2.57;2.37;;;24.80;99.90;;;;;;5049427;28;20424;-82
2021/07/30 10:40:21;;;;;;;5.10;2.97;;;24.80;99.90;;;;;;5051042;28;20444;-81
2021/07/30 10:43:07;;;;;;;3.73;2.90;;;24.70;99.90;;;;;;5047677;28;20447;-82
2021/07/30 10:45:35;;;;;;;3.57;2.10;;;25.00;99.90;;;;;;5042892;28;20535;-82
2021/07/30 10:48:34;;;;;;;7.00;3.53;;;24.80;99.90;;;;;;5045691;28;20428;-82
2021/07/30 10:51:25;;;;;;;3.63;2.53;;;24.80;99.90;;;;;;5043205;28;20452;-82
2021/07/30 10:53:56;;;;;;;2.80;2.40;;;24.50;99.90;;;;;;5045012;28;20476;-81
2021/07/30 10:56:49;;;;;;;4.23;2.63;;;24.50;99.90;;;;;;5046340;28;20544;-81
2021/07/30 10:59:20;;;;;;;2.60;2.30;;;24.60;99.90;;;;;;5044789;28;20435;-82
2021/07/30 11:02:00;;;;;;;5.30;3.37;;;24.70;99.90;;;;;;5047269;28;20432;-82
2021/07/30 11:04:30;;;;;;;6.23;2.80;;;24.50;99.90;;;;;;5049578;28;20450;-82
2021/07/30 11:06:59;;;;;;;5.13;3.00;;;24.40;99.90;;;;;;5050494;28;20394;-80
2021/07/30 11:09:37;;;;;;;4.10;3.17;;;24.10;99.90;;;;;;5050455;28;20420;-81
2021/07/30 11:12:20;;;;;;;3.10;2.80;;;24.20;99.90;;;;;;5047410;28;20486;-82
2021/07/30 11:14:52;;;;;;;3.50;2.60;;;24.10;99.90;;;;;;5053601;28;20423;-80
2021/07/30 11:17:21;;;;;;;2.77;2.27;;;24.10;99.90;;;;;;5036198;28;20437;-81
2021/07/30 11:19:52;;;;;;;4.10;3.00;;;24.30;99.90;;;;;;5052999;28;20420;-82
2021/07/30 11:22:26;;;;;;;2.67;1.87;;;24.70;99.90;;;;;;5059362;22;20435;-74
2021/07/30 11:24:56;;;;;;;6.93;3.10;;;24.90;99.90;;;;;;5050019;28;20456;-71
2021/07/30 11:27:25;;;;;;;9.10;2.53;;;25.20;99.90;;;;;;5071122;28;20828;-72
2021/07/30 11:29:55;;;;;;;5.20;2.40;;;25.40;99.90;;;;;;5071979;28;20445;-71
2021/07/30 11:32:24;;;;;;;3.87;3.03;;;25.60;99.90;;;;;;5075792;28;20488;-73
2021/07/30 11:34:56;;;;;;;3.90;2.80;;;25.70;99.90;;;;;;5075159;28;20442;-71
2021/07/30 11:37:26;;;;;;;5.03;2.70;;;25.70;99.90;;;;;;5076149;28;20440;-71
2021/07/30 11:39:57;;;;;;;4.13;2.40;;;25.90;99.90;;;;;;5076196;28;20442;-72
2021/07/30 11:42:28;;;;;;;2.20;2.00;;;25.80;99.90;;;;;;5077248;28;20785;-71
2021/07/30 11:45:00;;;;;;;4.37;2.30;;;25.80;99.90;;;;;;5076034;28;20415;-71
2021/07/30 11:47:29;;;;;;;4.03;2.53;;;25.80;99.90;;;;;;5075313;28;20431;-73
2021/07/30 11:50:07;;;;;;;3.00;2.10;;;25.80;99.90;;;;;;5073914;28;20393;-73
2021/07/30 11:52:37;;;;;;;3.27;2.50;;;25.80;99.90;;;;;;5070404;28;20434;-69
2021/07/30 11:55:14;;;;;;;3.17;2.00;;;25.40;99.90;;;;;;5070409;28;20788;-71
2021/07/30 11:57:43;;;;;;;3.73;2.53;;;25.00;99.90;;;;;;5068756;28;20486;-71
2021/07/30 12:00:12;;;;;;;4.27;2.60;;;24.50;99.90;;;;;;5070404;28;20434;-70
2021/07/30 12:02:42;;;;;;;4.27;2.50;;;24.50;99.90;;;;;;5070065;28;20433;-71
2021/07/30 12:05:10;;;;;;;3.80;2.97;;;24.50;99.90;;;;;;5070367;28;20915;-72
2021/07/30 12:07:40;;;;;;;3.60;2.53;;;24.70;99.90;;;;;;5070382;28;20499;-72
2021/07/30 12:10:10;;;;;;;8.30;3.43;;;25.00;99.90;;;;;;5070531;28;20437;-71
2021/07/30 12:12:43;;;;;;;4.20;3.03;;;25.10;99.90;;;;;;5070099;28;20405;-72
2021/07/30 12:15:12;;;;;;;3.13;2.37;;;25.40;99.90;;;;;;5069213;28;20955;-72
2021/07/30 12:17:41;;;;;;;3.93;2.70;;;25.90;99.90;;;;;;5050989;28;20504;-72
2021/07/30 12:20:13;;;;;;;3.43;2.77;;;26.30;99.90;;;;;;5069689;28;20500;-73
2021/07/30 12:22:43;;;;;;;6.30;3.17;;;26.40;99.90;;;;;;5069249;28;20422;-71
2021/07/30 12:25:16;;;;;;;4.20;2.30;;;26.60;99.90;;;;;;5064012;28;20471;-72
2021/07/30 12:28:04;;;;;;;5.33;3.37;;;26.40;99.90;;;;;;5061078;28;20480;-72
2021/07/30 12:30:32;;;;;;;3.50;2.67;;;26.70;99.90;;;;;;5061050;28;20458;-71
2021/07/30 12:33:01;;;;;;;4.63;2.20;;;26.70;99.90;;;;;;5060032;28;20450;-72
2021/07/30 12:35:35;;;;;;;6.33;2.60;;;26.70;99.90;;;;;;5033805;28;20431;-69
2021/07/30 12:38:06;;;;;;;6.13;2.60;;;26.50;99.90;;;;;;5031871;28;20476;-71
2021/07/30 12:40:36;;;;;;;2.83;2.50;;;26.60;99.90;;;;;;5043812;28;20453;-70
2021/07/30 12:43:13;;;;;;;3.23;2.10;;;26.60;99.90;;;;;;5053233;28;20868;-71
2021/07/30 12:45:43;;;;;;;7.90;2.60;;;26.80;99.90;;;;;;5053537;28;20414;-71
2021/07/30 12:48:18;;;;;;;3.60;2.37;;;26.90;99.90;;;;;;5053674;28;21049;-71
2021/07/30 12:50:47;;;;;;;3.43;2.40;;;26.70;99.90;;;;;;5052177;28;20492;-69
2021/07/30 12:53:17;;;;;;;5.67;2.77;;;26.40;99.90;;;;;;5053451;28;20397;-71
2021/07/30 12:55:59;;;;;;;3.70;2.77;;;26.40;99.90;;;;;;5053277;28;20419;-72
2021/07/30 12:58:30;;;;;;;5.53;3.00;;;26.40;99.90;;;;;;5053874;28;20425;-72